Okara Weather



Okara's Current Weather

Temprature 24.68o clear sky

clear sky

Rain: 0 %

Min Temprature24.68o
Max Temprature24.68o
Humidity60
Wind Speed5.18 m/h
Sun Rise05:06:47
Sun Set18:59:35
Current Time: 24-May-2022 06:52:16
Lat/Lon: 30.8081, 73.4458




Okara's Geo Location



Okara's Weather Forecast

Time Overall Temp Min Temp Max Temp Humidity Wind Speed Rain
24-May-2022 (Tue)
08:00:00 clear sky 26.470 26.470 26.470 53 5.45 m/h 0 %
11:00:00 clear sky 28.060 28.060 31.250 48 4.73 m/h 0 %
14:00:00 clear sky 31.820 31.820 34.500 35 3.65 m/h 0 %
17:00:00 clear sky 35.050 35.050 35.050 22 3.31 m/h 0 %
20:00:00 clear sky 30.910 30.910 30.910 29 4.09 m/h 0 %
23:00:00 clear sky 29.180 29.180 29.180 33 2.41 m/h 0 %
25-May-2022 (Wed)
02:00:00 clear sky 27.910 27.910 27.910 35 2.45 m/h 0 %
05:00:00 clear sky 26.850 26.850 26.850 38 2.79 m/h 0 %
08:00:00 clear sky 32.590 32.590 32.590 24 3.77 m/h 0 %
11:00:00 clear sky 36.920 36.920 36.920 17 2.16 m/h 0 %
14:00:00 clear sky 39.330 39.330 39.330 14 2.6 m/h 0 %
17:00:00 clear sky 39.350 39.350 39.350 13 4.18 m/h 0 %
20:00:00 clear sky 34.390 34.390 34.390 20 3.44 m/h 0 %
23:00:00 clear sky 32.600 32.600 32.600 23 2.96 m/h 0 %
26-May-2022 (Thu)
02:00:00 clear sky 31.350 31.350 31.350 24 2.1 m/h 0 %
05:00:00 clear sky 30.300 30.300 30.300 25 2.97 m/h 0 %
08:00:00 clear sky 35.860 35.860 35.860 18 4.27 m/h 0 %
11:00:00 clear sky 41.030 41.030 41.030 12 3.66 m/h 0 %
14:00:00 clear sky 43.450 43.450 43.450 10 3.49 m/h 0 %
17:00:00 clear sky 43.620 43.620 43.620 9 3.49 m/h 0 %
20:00:00 clear sky 37.400 37.400 37.400 16 4.2 m/h 0 %
23:00:00 clear sky 35.000 35.000 35.000 19 3.57 m/h 0 %
27-May-2022 (Fri)
02:00:00 clear sky 34.010 34.010 34.010 19 3.65 m/h 0 %
05:00:00 clear sky 31.880 31.880 31.880 22 3.96 m/h 0 %
08:00:00 clear sky 36.850 36.850 36.850 29 6.41 m/h 0 %
11:00:00 clear sky 41.680 41.680 41.680 21 3.81 m/h 0 %
14:00:00 clear sky 44.810 44.810 44.810 15 3.63 m/h 0 %
17:00:00 clear sky 45.420 45.420 45.420 12 2.85 m/h 0 %
20:00:00 clear sky 39.990 39.990 39.990 17 3.99 m/h 0 %
23:00:00 clear sky 37.560 37.560 37.560 20 4.48 m/h 0 %
28-May-2022 (Sat)
02:00:00 clear sky 35.450 35.450 35.450 23 3.66 m/h 0 %
05:00:00 clear sky 32.170 32.170 32.170 21 3.46 m/h 0 %
08:00:00 clear sky 37.120 37.120 37.120 20 5.01 m/h 0 %
11:00:00 clear sky 43.730 43.730 43.730 8 6.05 m/h 0 %
14:00:00 clear sky 46.670 46.670 46.670 4 6.22 m/h 0 %
17:00:00 clear sky 46.600 46.600 46.600 2 5.33 m/h 0 %
20:00:00 clear sky 39.100 39.100 39.100 3 4.4 m/h 0 %
23:00:00 clear sky 36.140 36.140 36.140 4 3.93 m/h 0 %
29-May-2022 (Sun)
02:00:00 clear sky 32.830 32.830 32.830 7 5.15 m/h 0 %
05:00:00 clear sky 30.160 30.160 30.160 26 4.23 m/h 0 %

Famous Cities (61)